sensor_id;sensor_type;location;lat;lon;timestamp;P1;durP1;ratioP1;P2;durP2;ratioP2
28070;SDS011;15383;48.408;9.968;2022-09-09T00:13:19;5.90;;;1.70;;
28070;SDS011;15383;48.408;9.968;2022-09-09T00:36:50;5.80;;;1.45;;
28070;SDS011;15383;48.408;9.968;2022-09-09T00:56:13;8.15;;;1.52;;
28070;SDS011;15383;48.408;9.968;2022-09-09T01:09:58;6.53;;;2.15;;
28070;SDS011;15383;48.408;9.968;2022-09-09T01:16:38;7.72;;;2.08;;
28070;SDS011;15383;48.408;9.968;2022-09-09T01:26:51;5.50;;;1.60;;
28070;SDS011;15383;48.408;9.968;2022-09-09T01:37:03;5.03;;;1.92;;
28070;SDS011;15383;48.408;9.968;2022-09-09T02:11:13;7.75;;;2.00;;
28070;SDS011;15383;48.408;9.968;2022-09-09T02:38:45;3.78;;;1.55;;
28070;SDS011;15383;48.408;9.968;2022-09-09T03:19:32;7.35;;;1.38;;
28070;SDS011;15383;48.408;9.968;2022-09-09T03:29:39;4.47;;;1.55;;
28070;SDS011;15383;48.408;9.968;2022-09-09T03:32:37;4.45;;;1.73;;
28070;SDS011;15383;48.408;9.968;2022-09-09T04:02:22;4.05;;;1.33;;
28070;SDS011;15383;48.408;9.968;2022-09-09T04:04:50;2.25;;;1.20;;
28070;SDS011;15383;48.408;9.968;2022-09-09T04:07:15;3.17;;;1.17;;
28070;SDS011;15383;48.408;9.968;2022-09-09T04:20:15;2.17;;;1.42;;
28070;SDS011;15383;48.408;9.968;2022-09-09T04:22:41;2.75;;;1.20;;
28070;SDS011;15383;48.408;9.968;2022-09-09T04:25:16;1.33;;;1.08;;
28070;SDS011;15383;48.408;9.968;2022-09-09T04:38:05;3.17;;;1.30;;
28070;SDS011;15383;48.408;9.968;2022-09-09T04:40:57;1.30;;;1.08;;
28070;SDS011;15383;48.408;9.968;2022-09-09T04:47:47;2.85;;;0.98;;
28070;SDS011;15383;48.408;9.968;2022-09-09T04:51:04;1.85;;;1.35;;
28070;SDS011;15383;48.408;9.968;2022-09-09T04:53:32;2.97;;;1.30;;
28070;SDS011;15383;48.408;9.968;2022-09-09T04:56:06;1.95;;;1.20;;
28070;SDS011;15383;48.408;9.968;2022-09-09T04:58:33;2.15;;;1.20;;
28070;SDS011;15383;48.408;9.968;2022-09-09T05:01:03;6.95;;;1.38;;
28070;SDS011;15383;48.408;9.968;2022-09-09T05:03:33;5.32;;;2.05;;
28070;SDS011;15383;48.408;9.968;2022-09-09T05:06:04;10.95;;;1.30;;
28070;SDS011;15383;48.408;9.968;2022-09-09T05:08:31;2.58;;;1.35;;
28070;SDS011;15383;48.408;9.968;2022-09-09T05:10:57;4.05;;;1.13;;
28070;SDS011;15383;48.408;9.968;2022-09-09T05:13:24;2.53;;;1.23;;
28070;SDS011;15383;48.408;9.968;2022-09-09T05:19:14;4.57;;;1.38;;
28070;SDS011;15383;48.408;9.968;2022-09-09T05:21:43;2.47;;;1.07;;
28070;SDS011;15383;48.408;9.968;2022-09-09T05:24:09;2.90;;;1.83;;
28070;SDS011;15383;48.408;9.968;2022-09-09T05:26:35;6.78;;;0.95;;
28070;SDS011;15383;48.408;9.968;2022-09-09T05:29:01;3.05;;;1.42;;
28070;SDS011;15383;48.408;9.968;2022-09-09T05:31:27;9.55;;;1.75;;
28070;SDS011;15383;48.408;9.968;2022-09-09T05:33:55;3.25;;;1.30;;
28070;SDS011;15383;48.408;9.968;2022-09-09T05:36:21;3.80;;;1.13;;
28070;SDS011;15383;48.408;9.968;2022-09-09T05:38:48;2.88;;;1.60;;
28070;SDS011;15383;48.408;9.968;2022-09-09T05:41:15;4.45;;;1.00;;
28070;SDS011;15383;48.408;9.968;2022-09-09T05:43:42;3.20;;;1.23;;
28070;SDS011;15383;48.408;9.968;2022-09-09T05:46:12;4.55;;;1.70;;
28070;SDS011;15383;48.408;9.968;2022-09-09T05:48:40;5.93;;;1.50;;
28070;SDS011;15383;48.408;9.968;2022-09-09T05:51:10;4.75;;;1.40;;
28070;SDS011;15383;48.408;9.968;2022-09-09T05:53:40;5.72;;;1.65;;
28070;SDS011;15383;48.408;9.968;2022-09-09T05:56:10;6.22;;;1.40;;
28070;SDS011;15383;48.408;9.968;2022-09-09T05:58:40;5.10;;;1.48;;
28070;SDS011;15383;48.408;9.968;2022-09-09T06:01:18;7.05;;;1.30;;
28070;SDS011;15383;48.408;9.968;2022-09-09T06:06:22;2.67;;;1.42;;
28070;SDS011;15383;48.408;9.968;2022-09-09T06:08:51;3.22;;;1.40;;
28070;SDS011;15383;48.408;9.968;2022-09-09T06:11:21;8.10;;;1.45;;
28070;SDS011;15383;48.408;9.968;2022-09-09T06:13:48;5.93;;;1.30;;
28070;SDS011;15383;48.408;9.968;2022-09-09T06:16:18;2.75;;;1.17;;
28070;SDS011;15383;48.408;9.968;2022-09-09T06:18:45;4.00;;;1.40;;
28070;SDS011;15383;48.408;9.968;2022-09-09T06:21:15;5.50;;;1.42;;
28070;SDS011;15383;48.408;9.968;2022-09-09T06:23:52;2.72;;;1.35;;
28070;SDS011;15383;48.408;9.968;2022-09-09T06:26:25;1.70;;;1.20;;
28070;SDS011;15383;48.408;9.968;2022-09-09T06:28:53;3.13;;;1.30;;
28070;SDS011;15383;48.408;9.968;2022-09-09T06:31:21;3.90;;;1.35;;
28070;SDS011;15383;48.408;9.968;2022-09-09T06:33:48;1.42;;;1.20;;
28070;SDS011;15383;48.408;9.968;2022-09-09T06:36:22;2.20;;;1.20;;
28070;SDS011;15383;48.408;9.968;2022-09-09T06:38:49;2.00;;;1.40;;
28070;SDS011;15383;48.408;9.968;2022-09-09T06:41:16;3.00;;;1.10;;
28070;SDS011;15383;48.408;9.968;2022-09-09T06:43:43;7.05;;;1.40;;
28070;SDS011;15383;48.408;9.968;2022-09-09T06:48:38;6.38;;;1.40;;
28070;SDS011;15383;48.408;9.968;2022-09-09T06:53:33;8.13;;;1.10;;
28070;SDS011;15383;48.408;9.968;2022-09-09T06:56:00;1.30;;;1.02;;
28070;SDS011;15383;48.408;9.968;2022-09-09T06:58:37;1.58;;;1.00;;
28070;SDS011;15383;48.408;9.968;2022-09-09T07:01:08;4.45;;;1.25;;
28070;SDS011;15383;48.408;9.968;2022-09-09T07:03:34;4.85;;;1.25;;
28070;SDS011;15383;48.408;9.968;2022-09-09T07:06:01;3.28;;;1.40;;
28070;SDS011;15383;48.408;9.968;2022-09-09T07:08:26;3.53;;;1.23;;
28070;SDS011;15383;48.408;9.968;2022-09-09T07:10:53;2.58;;;1.10;;
28070;SDS011;15383;48.408;9.968;2022-09-09T07:13:25;1.05;;;0.85;;
28070;SDS011;15383;48.408;9.968;2022-09-09T07:15:52;4.28;;;1.38;;
28070;SDS011;15383;48.408;9.968;2022-09-09T07:18:18;2.10;;;1.20;;
28070;SDS011;15383;48.408;9.968;2022-09-09T07:20:52;4.10;;;1.30;;
28070;SDS011;15383;48.408;9.968;2022-09-09T07:23:19;2.72;;;1.30;;
28070;SDS011;15383;48.408;9.968;2022-09-09T07:25:45;3.17;;;1.40;;
28070;SDS011;15383;48.408;9.968;2022-09-09T07:28:12;4.53;;;1.08;;
28070;SDS011;15383;48.408;9.968;2022-09-09T07:30:38;3.90;;;1.27;;
28070;SDS011;15383;48.408;9.968;2022-09-09T07:33:05;2.03;;;1.08;;
28070;SDS011;15383;48.408;9.968;2022-09-09T07:35:30;2.70;;;1.10;;
28070;SDS011;15383;48.408;9.968;2022-09-09T07:37:56;4.88;;;1.23;;
28070;SDS011;15383;48.408;9.968;2022-09-09T07:40:22;3.55;;;1.00;;
28070;SDS011;15383;48.408;9.968;2022-09-09T07:42:48;2.92;;;1.33;;
28070;SDS011;15383;48.408;9.968;2022-09-09T07:45:14;9.05;;;1.65;;
28070;SDS011;15383;48.408;9.968;2022-09-09T07:47:39;4.07;;;1.20;;
28070;SDS011;15383;48.408;9.968;2022-09-09T07:50:07;2.15;;;1.20;;
28070;SDS011;15383;48.408;9.968;2022-09-09T07:52:34;1.83;;;1.15;;
28070;SDS011;15383;48.408;9.968;2022-09-09T07:55:00;3.28;;;1.30;;
28070;SDS011;15383;48.408;9.968;2022-09-09T07:57:29;2.00;;;1.38;;
28070;SDS011;15383;48.408;9.968;2022-09-09T07:59:55;2.55;;;1.10;;
28070;SDS011;15383;48.408;9.968;2022-09-09T08:02:22;4.97;;;1.48;;
28070;SDS011;15383;48.408;9.968;2022-09-09T08:04:48;1.95;;;1.17;;
28070;SDS011;15383;48.408;9.968;2022-09-09T08:07:14;4.88;;;1.60;;
28070;SDS011;15383;48.408;9.968;2022-09-09T08:09:41;4.38;;;1.40;;
28070;SDS011;15383;48.408;9.968;2022-09-09T08:12:06;7.30;;;1.48;;
28070;SDS011;15383;48.408;9.968;2022-09-09T08:14:43;12.57;;;1.58;;
28070;SDS011;15383;48.408;9.968;2022-09-09T08:17:08;4.82;;;1.70;;
28070;SDS011;15383;48.408;9.968;2022-09-09T08:19:34;5.50;;;1.50;;
28070;SDS011;15383;48.408;9.968;2022-09-09T08:22:01;5.45;;;1.95;;
28070;SDS011;15383;48.408;9.968;2022-09-09T08:24:27;4.25;;;2.20;;
28070;SDS011;15383;48.408;9.968;2022-09-09T08:26:53;3.25;;;1.92;;
28070;SDS011;15383;48.408;9.968;2022-09-09T08:29:19;2.45;;;1.90;;
28070;SDS011;15383;48.408;9.968;2022-09-09T08:31:46;5.05;;;2.15;;
28070;SDS011;15383;48.408;9.968;2022-09-09T08:34:19;3.10;;;2.20;;
28070;SDS011;15383;48.408;9.968;2022-09-09T08:36:46;4.43;;;1.90;;
28070;SDS011;15383;48.408;9.968;2022-09-09T08:39:15;3.13;;;1.80;;
28070;SDS011;15383;48.408;9.968;2022-09-09T08:55:35;2.65;;;1.48;;
28070;SDS011;15383;48.408;9.968;2022-09-09T08:58:09;1.58;;;1.48;;
28070;SDS011;15383;48.408;9.968;2022-09-09T09:09:12;1.63;;;1.00;;
28070;SDS011;15383;48.408;9.968;2022-09-09T09:12:00;2.60;;;1.10;;
28070;SDS011;15383;48.408;9.968;2022-09-09T09:14:28;4.60;;;1.10;;
28070;SDS011;15383;48.408;9.968;2022-09-09T09:16:59;3.58;;;1.23;;
28070;SDS011;15383;48.408;9.968;2022-09-09T09:19:27;2.53;;;1.10;;
28070;SDS011;15383;48.408;9.968;2022-09-09T09:27:21;7.18;;;1.52;;
28070;SDS011;15383;48.408;9.968;2022-09-09T09:29:56;2.75;;;1.00;;
28070;SDS011;15383;48.408;9.968;2022-09-09T09:33:18;1.73;;;1.00;;
28070;SDS011;15383;48.408;9.968;2022-09-09T09:39:55;4.93;;;1.08;;
28070;SDS011;15383;48.408;9.968;2022-09-09T09:42:29;6.03;;;1.20;;
28070;SDS011;15383;48.408;9.968;2022-09-09T09:44:55;5.53;;;1.45;;
28070;SDS011;15383;48.408;9.968;2022-09-09T09:47:21;2.85;;;1.13;;
28070;SDS011;15383;48.408;9.968;2022-09-09T09:50:15;1.30;;;0.80;;
28070;SDS011;15383;48.408;9.968;2022-09-09T09:52:51;5.43;;;1.33;;
28070;SDS011;15383;48.408;9.968;2022-09-09T09:55:22;4.82;;;1.10;;
28070;SDS011;15383;48.408;9.968;2022-09-09T09:57:49;8.32;;;1.05;;
28070;SDS011;15383;48.408;9.968;2022-09-09T10:02:43;4.13;;;1.15;;
28070;SDS011;15383;48.408;9.968;2022-09-09T10:05:17;4.32;;;1.17;;
28070;SDS011;15383;48.408;9.968;2022-09-09T10:07:45;4.50;;;1.00;;
28070;SDS011;15383;48.408;9.968;2022-09-09T10:10:20;2.97;;;1.02;;
28070;SDS011;15383;48.408;9.968;2022-09-09T10:22:39;2.45;;;1.67;;
28070;SDS011;15383;48.408;9.968;2022-09-09T10:27:49;3.05;;;0.90;;
28070;SDS011;15383;48.408;9.968;2022-09-09T10:30:21;4.65;;;1.20;;
28070;SDS011;15383;48.408;9.968;2022-09-09T10:38:40;2.58;;;0.93;;
28070;SDS011;15383;48.408;9.968;2022-09-09T10:57:09;3.97;;;1.40;;
28070;SDS011;15383;48.408;9.968;2022-09-09T10:59:49;3.25;;;0.85;;
28070;SDS011;15383;48.408;9.968;2022-09-09T11:02:25;4.57;;;1.05;;
28070;SDS011;15383;48.408;9.968;2022-09-09T11:04:54;3.83;;;0.77;;
28070;SDS011;15383;48.408;9.968;2022-09-09T11:10:11;2.53;;;1.00;;
28070;SDS011;15383;48.408;9.968;2022-09-09T11:12:46;1.48;;;0.80;;
28070;SDS011;15383;48.408;9.968;2022-09-09T11:18:03;5.78;;;1.20;;
28070;SDS011;15383;48.408;9.968;2022-09-09T11:26:30;2.50;;;0.82;;
28070;SDS011;15383;48.408;9.968;2022-09-09T11:31:58;2.08;;;0.90;;
28070;SDS011;15383;48.408;9.968;2022-09-09T11:34:33;0.70;;;0.70;;
28070;SDS011;15383;48.408;9.968;2022-09-09T11:44:51;4.88;;;0.80;;
28070;SDS011;15383;48.408;9.968;2022-09-09T11:49:55;1.10;;;0.73;;
28070;SDS011;15383;48.408;9.968;2022-09-09T11:52:37;6.57;;;1.00;;
28070;SDS011;15383;48.408;9.968;2022-09-09T11:55:11;1.45;;;0.80;;
28070;SDS011;15383;48.408;9.968;2022-09-09T11:57:57;4.25;;;0.90;;
28070;SDS011;15383;48.408;9.968;2022-09-09T12:00:43;1.63;;;0.70;;
28070;SDS011;15383;48.408;9.968;2022-09-09T12:06:11;3.42;;;0.93;;
28070;SDS011;15383;48.408;9.968;2022-09-09T12:08:43;1.08;;;0.68;;
28070;SDS011;15383;48.408;9.968;2022-09-09T12:11:23;9.35;;;1.13;;
28070;SDS011;15383;48.408;9.968;2022-09-09T12:13:58;2.33;;;0.95;;
28070;SDS011;15383;48.408;9.968;2022-09-09T12:16:32;6.53;;;0.80;;
28070;SDS011;15383;48.408;9.968;2022-09-09T12:27:34;0.73;;;0.73;;
28070;SDS011;15383;48.408;9.968;2022-09-09T12:30:10;0.77;;;0.77;;
28070;SDS011;15383;48.408;9.968;2022-09-09T12:32:44;1.70;;;0.80;;
28070;SDS011;15383;48.408;9.968;2022-09-09T12:35:23;4.15;;;0.95;;
28070;SDS011;15383;48.408;9.968;2022-09-09T12:37:58;1.52;;;0.63;;
28070;SDS011;15383;48.408;9.968;2022-09-09T12:40:35;2.28;;;0.88;;
28070;SDS011;15383;48.408;9.968;2022-09-09T12:43:20;3.65;;;1.00;;
28070;SDS011;15383;48.408;9.968;2022-09-09T12:46:00;2.15;;;0.93;;
28070;SDS011;15383;48.408;9.968;2022-09-09T12:51:31;1.17;;;0.73;;
28070;SDS011;15383;48.408;9.968;2022-09-09T13:00:54;0.95;;;0.80;;
28070;SDS011;15383;48.408;9.968;2022-09-09T13:03:33;1.95;;;0.88;;
28070;SDS011;15383;48.408;9.968;2022-09-09T13:06:12;0.68;;;0.60;;
28070;SDS011;15383;48.408;9.968;2022-09-09T13:08:42;10.40;;;1.55;;
28070;SDS011;15383;48.408;9.968;2022-09-09T13:11:10;1.05;;;0.88;;
28070;SDS011;15383;48.408;9.968;2022-09-09T13:20:27;2.00;;;0.75;;
28070;SDS011;15383;48.408;9.968;2022-09-09T13:23:02;1.77;;;0.82;;
28070;SDS011;15383;48.408;9.968;2022-09-09T13:32:21;1.05;;;0.70;;
28070;SDS011;15383;48.408;9.968;2022-09-09T13:34:57;0.85;;;0.80;;
28070;SDS011;15383;48.408;9.968;2022-09-09T13:37:32;1.63;;;0.68;;
28070;SDS011;15383;48.408;9.968;2022-09-09T13:40:04;1.52;;;1.00;;
28070;SDS011;15383;48.408;9.968;2022-09-09T13:42:32;4.68;;;0.80;;
28070;SDS011;15383;48.408;9.968;2022-09-09T13:45:36;2.95;;;0.90;;
28070;SDS011;15383;48.408;9.968;2022-09-09T13:48:08;2.22;;;0.70;;
28070;SDS011;15383;48.408;9.968;2022-09-09T13:50:35;3.40;;;0.73;;
28070;SDS011;15383;48.408;9.968;2022-09-09T13:53:01;1.52;;;0.73;;
28070;SDS011;15383;48.408;9.968;2022-09-09T13:55:27;1.55;;;0.70;;
28070;SDS011;15383;48.408;9.968;2022-09-09T13:58:00;2.42;;;0.80;;
28070;SDS011;15383;48.408;9.968;2022-09-09T14:00:31;1.58;;;0.80;;
28070;SDS011;15383;48.408;9.968;2022-09-09T14:02:58;2.53;;;1.00;;
28070;SDS011;15383;48.408;9.968;2022-09-09T14:05:27;6.72;;;0.95;;
28070;SDS011;15383;48.408;9.968;2022-09-09T14:07:54;2.45;;;0.93;;
28070;SDS011;15383;48.408;9.968;2022-09-09T14:10:20;3.50;;;1.10;;
28070;SDS011;15383;48.408;9.968;2022-09-09T14:12:47;2.50;;;1.10;;
28070;SDS011;15383;48.408;9.968;2022-09-09T14:15:12;1.95;;;0.80;;
28070;SDS011;15383;48.408;9.968;2022-09-09T14:17:39;3.45;;;1.00;;
28070;SDS011;15383;48.408;9.968;2022-09-09T14:20:05;2.92;;;0.80;;
28070;SDS011;15383;48.408;9.968;2022-09-09T14:22:34;0.50;;;0.45;;
28070;SDS011;15383;48.408;9.968;2022-09-09T14:25:00;5.05;;;0.70;;
28070;SDS011;15383;48.408;9.968;2022-09-09T14:27:27;2.85;;;1.27;;
28070;SDS011;15383;48.408;9.968;2022-09-09T14:29:53;4.72;;;1.10;;
28070;SDS011;15383;48.408;9.968;2022-09-09T14:32:20;1.52;;;0.90;;
28070;SDS011;15383;48.408;9.968;2022-09-09T14:34:46;1.00;;;0.82;;
28070;SDS011;15383;48.408;9.968;2022-09-09T14:37:14;0.80;;;0.80;;
28070;SDS011;15383;48.408;9.968;2022-09-09T14:39:41;3.88;;;0.88;;
28070;SDS011;15383;48.408;9.968;2022-09-09T14:42:09;3.83;;;0.55;;
28070;SDS011;15383;48.408;9.968;2022-09-09T14:44:37;1.88;;;0.80;;
28070;SDS011;15383;48.408;9.968;2022-09-09T14:47:06;3.33;;;0.98;;
28070;SDS011;15383;48.408;9.968;2022-09-09T14:49:33;2.22;;;0.95;;
28070;SDS011;15383;48.408;9.968;2022-09-09T14:51:59;1.65;;;0.70;;
28070;SDS011;15383;48.408;9.968;2022-09-09T14:54:26;1.63;;;0.77;;
28070;SDS011;15383;48.408;9.968;2022-09-09T14:56:51;2.55;;;0.63;;
28070;SDS011;15383;48.408;9.968;2022-09-09T14:59:17;3.13;;;0.88;;
28070;SDS011;15383;48.408;9.968;2022-09-09T15:01:42;3.65;;;0.77;;
28070;SDS011;15383;48.408;9.968;2022-09-09T15:04:10;3.08;;;0.70;;
28070;SDS011;15383;48.408;9.968;2022-09-09T15:06:37;1.60;;;0.75;;
28070;SDS011;15383;48.408;9.968;2022-09-09T15:09:04;7.28;;;0.88;;
28070;SDS011;15383;48.408;9.968;2022-09-09T15:11:31;1.92;;;0.90;;
28070;SDS011;15383;48.408;9.968;2022-09-09T15:14:02;1.65;;;0.98;;
28070;SDS011;15383;48.408;9.968;2022-09-09T15:16:32;4.25;;;0.95;;
28070;SDS011;15383;48.408;9.968;2022-09-09T15:18:58;1.88;;;0.85;;
28070;SDS011;15383;48.408;9.968;2022-09-09T15:21:26;1.17;;;0.73;;
28070;SDS011;15383;48.408;9.968;2022-09-09T15:23:54;4.93;;;0.90;;
28070;SDS011;15383;48.408;9.968;2022-09-09T15:26:20;2.33;;;0.88;;
28070;SDS011;15383;48.408;9.968;2022-09-09T15:28:46;2.83;;;1.08;;
28070;SDS011;15383;48.408;9.968;2022-09-09T15:31:14;2.13;;;0.70;;
28070;SDS011;15383;48.408;9.968;2022-09-09T15:33:51;2.80;;;0.80;;
28070;SDS011;15383;48.408;9.968;2022-09-09T15:36:26;5.47;;;0.90;;
28070;SDS011;15383;48.408;9.968;2022-09-09T15:38:52;3.15;;;1.33;;
28070;SDS011;15383;48.408;9.968;2022-09-09T15:41:18;1.30;;;0.80;;
28070;SDS011;15383;48.408;9.968;2022-09-09T15:43:46;0.82;;;0.80;;
28070;SDS011;15383;48.408;9.968;2022-09-09T15:48:49;1.73;;;0.70;;
28070;SDS011;15383;48.408;9.968;2022-09-09T15:51:15;0.75;;;0.65;;
28070;SDS011;15383;48.408;9.968;2022-09-09T15:53:41;2.22;;;1.05;;
28070;SDS011;15383;48.408;9.968;2022-09-09T15:56:07;2.40;;;0.68;;
28070;SDS011;15383;48.408;9.968;2022-09-09T15:58:33;3.55;;;1.02;;
28070;SDS011;15383;48.408;9.968;2022-09-09T16:01:04;1.15;;;0.70;;
28070;SDS011;15383;48.408;9.968;2022-09-09T16:03:35;1.38;;;0.70;;
28070;SDS011;15383;48.408;9.968;2022-09-09T16:06:02;1.73;;;0.70;;
28070;SDS011;15383;48.408;9.968;2022-09-09T16:08:33;1.23;;;0.52;;
28070;SDS011;15383;48.408;9.968;2022-09-09T16:11:09;1.65;;;0.82;;
28070;SDS011;15383;48.408;9.968;2022-09-09T16:13:37;0.73;;;0.70;;
28070;SDS011;15383;48.408;9.968;2022-09-09T16:16:07;4.75;;;0.80;;
28070;SDS011;15383;48.408;9.968;2022-09-09T16:18:53;1.80;;;0.90;;
28070;SDS011;15383;48.408;9.968;2022-09-09T16:21:24;1.55;;;0.50;;
28070;SDS011;15383;48.408;9.968;2022-09-09T16:23:54;2.28;;;0.73;;
28070;SDS011;15383;48.408;9.968;2022-09-09T16:26:20;1.02;;;0.60;;
28070;SDS011;15383;48.408;9.968;2022-09-09T16:28:46;1.83;;;0.60;;
28070;SDS011;15383;48.408;9.968;2022-09-09T16:31:13;2.65;;;0.68;;
28070;SDS011;15383;48.408;9.968;2022-09-09T16:33:42;1.02;;;0.63;;
28070;SDS011;15383;48.408;9.968;2022-09-09T16:36:09;1.25;;;0.75;;
28070;SDS011;15383;48.408;9.968;2022-09-09T16:38:37;1.45;;;0.60;;
28070;SDS011;15383;48.408;9.968;2022-09-09T16:41:04;1.20;;;0.68;;
28070;SDS011;15383;48.408;9.968;2022-09-09T16:43:34;3.72;;;1.17;;
28070;SDS011;15383;48.408;9.968;2022-09-09T16:46:01;5.03;;;1.58;;
28070;SDS011;15383;48.408;9.968;2022-09-09T16:48:32;5.18;;;0.60;;
28070;SDS011;15383;48.408;9.968;2022-09-09T16:51:04;5.00;;;0.60;;
28070;SDS011;15383;48.408;9.968;2022-09-09T16:53:32;2.15;;;1.00;;
28070;SDS011;15383;48.408;9.968;2022-09-09T16:55:58;3.85;;;1.27;;
28070;SDS011;15383;48.408;9.968;2022-09-09T16:58:33;6.50;;;0.77;;
28070;SDS011;15383;48.408;9.968;2022-09-09T17:01:03;2.72;;;0.60;;
28070;SDS011;15383;48.408;9.968;2022-09-09T17:03:29;0.55;;;0.55;;
28070;SDS011;15383;48.408;9.968;2022-09-09T17:05:56;0.75;;;0.60;;
28070;SDS011;15383;48.408;9.968;2022-09-09T17:08:22;2.78;;;0.50;;
28070;SDS011;15383;48.408;9.968;2022-09-09T17:10:48;0.98;;;0.50;;
28070;SDS011;15383;48.408;9.968;2022-09-09T17:13:14;0.85;;;0.50;;
28070;SDS011;15383;48.408;9.968;2022-09-09T17:15:42;1.15;;;0.77;;
28070;SDS011;15383;48.408;9.968;2022-09-09T17:18:09;2.83;;;0.75;;
28070;SDS011;15383;48.408;9.968;2022-09-09T17:20:39;2.60;;;0.65;;
28070;SDS011;15383;48.408;9.968;2022-09-09T17:23:06;4.45;;;0.70;;
28070;SDS011;15383;48.408;9.968;2022-09-09T17:25:35;1.23;;;0.90;;
28070;SDS011;15383;48.408;9.968;2022-09-09T17:28:02;2.85;;;0.60;;
28070;SDS011;15383;48.408;9.968;2022-09-09T17:30:34;1.73;;;0.60;;
28070;SDS011;15383;48.408;9.968;2022-09-09T17:33:01;1.23;;;0.70;;
28070;SDS011;15383;48.408;9.968;2022-09-09T17:35:28;3.75;;;0.75;;
28070;SDS011;15383;48.408;9.968;2022-09-09T17:37:54;0.93;;;0.60;;
28070;SDS011;15383;48.408;9.968;2022-09-09T17:40:21;4.15;;;0.93;;
28070;SDS011;15383;48.408;9.968;2022-09-09T17:42:47;1.45;;;0.60;;
28070;SDS011;15383;48.408;9.968;2022-09-09T17:45:13;0.90;;;0.68;;
28070;SDS011;15383;48.408;9.968;2022-09-09T17:47:40;4.95;;;0.63;;
28070;SDS011;15383;48.408;9.968;2022-09-09T17:50:07;1.95;;;0.70;;
28070;SDS011;15383;48.408;9.968;2022-09-09T17:52:33;4.82;;;0.90;;
28070;SDS011;15383;48.408;9.968;2022-09-09T17:54:59;1.30;;;0.73;;
28070;SDS011;15383;48.408;9.968;2022-09-09T17:57:25;1.10;;;0.65;;
28070;SDS011;15383;48.408;9.968;2022-09-09T17:59:51;0.50;;;0.50;;
28070;SDS011;15383;48.408;9.968;2022-09-09T18:02:17;1.23;;;0.80;;
28070;SDS011;15383;48.408;9.968;2022-09-09T18:04:42;2.03;;;0.73;;
28070;SDS011;15383;48.408;9.968;2022-09-09T18:07:08;4.50;;;0.80;;
28070;SDS011;15383;48.408;9.968;2022-09-09T18:09:33;2.53;;;0.75;;
28070;SDS011;15383;48.408;9.968;2022-09-09T18:11:59;3.05;;;0.60;;
28070;SDS011;15383;48.408;9.968;2022-09-09T18:14:26;2.15;;;0.70;;
28070;SDS011;15383;48.408;9.968;2022-09-09T18:16:55;1.88;;;0.52;;
28070;SDS011;15383;48.408;9.968;2022-09-09T18:19:23;1.77;;;0.85;;
28070;SDS011;15383;48.408;9.968;2022-09-09T18:21:51;0.73;;;0.57;;
28070;SDS011;15383;48.408;9.968;2022-09-09T18:24:18;1.10;;;0.75;;
28070;SDS011;15383;48.408;9.968;2022-09-09T18:26:45;1.30;;;0.70;;
28070;SDS011;15383;48.408;9.968;2022-09-09T18:29:12;2.30;;;0.80;;
